< < Back
Terminal Aerodrome Forecast


Current Version              Previous Versions:   1  2  3  4  5  6  7  8  9  

Terminal Aerodrome Forecast

104
FTUS42 KCHS 300500
TAFSAV
TAF
KSAV 300523Z 3006/3106 VRB03KT P6SM SCT090
     FM301800 10007KT P6SM SCT050
     FM310000 09004KT P6SM FEW040=

Latest METAR

854
SAUS80 KWBC 301300
MTRSAV
METAR KSAV 301253Z 00000KT 10SM BKN095 26/19 A2999 RMK AO2 SLP154
T02610194


USA.gov is the U.S. government's official web portal to all federal, state and local government web resources and services.